This is the latest recevied weather packets stored in our database for station/object KQ4UWH. If no packets are shown the sender has not sent any weather packets the latest 1 day(s).
| Time | Temp. | Humidity | Pressure | Rain* | Wind** | Luminosity | Snow |
|---|---|---|---|---|---|---|---|
| 1778013913 | 27.22° C | 34% | 1239.7 hPa | 0 mm | 0.89 m/s, 168° | 518 W/m² | - |
| 1778013609 | 27.78° C | 32% | 1239.7 hPa | 0 mm | 0 m/s | 533 W/m² | - |
| 1778013305 | 27.78° C | 32% | 1239.7 hPa | 0 mm | 0 m/s | 551 W/m² | - |
| 1778013003 | 27.78° C | 32% | 1239.7 hPa | 0 mm | 0.45 m/s, 174° | 565 W/m² | - |
| 1778012699 | 27.22° C | 33% | 1239.7 hPa | 0 mm | 0 m/s | 567 W/m² | - |
| 1778012395 | 27.22° C | 35% | 1239.7 hPa | 0 mm | 0.89 m/s, 168° | 575 W/m² | - |
| 1778012092 | 27.22° C | 33% | 1239.7 hPa | 0 mm | 1.79 m/s, 191° | 594 W/m² | - |
| 1778011790 | 27.22° C | 37% | 1239.7 hPa | 0 mm | 0.89 m/s, 130° | 603 W/m² | - |
| 1778011488 | 26.67° C | 32% | 1239.7 hPa | 0 mm | 0.45 m/s, 100° | 597 W/m² | - |
| 1778011183 | 26.67° C | 33% | 1239.7 hPa | 0 mm | 0 m/s | 617 W/m² | - |
| 1778010880 | 27.22° C | 33% | 1239.7 hPa | 0 mm | 1.34 m/s, 180° | 633 W/m² | - |
| 1778010578 | 27.22° C | 34% | 1239.7 hPa | 0 mm | 0 m/s | 641 W/m² | - |
| 1778010275 | 27.78° C | 33% | 1239.7 hPa | 0 mm | 0.89 m/s, 60° | 647 W/m² | - |
| 1778009974 | 27.22° C | 34% | 1239.7 hPa | 0 mm | 0.45 m/s, 133° | 659 W/m² | - |
| 1778009672 | 26.67° C | 34% | 1239.7 hPa | 0 mm | 0 m/s | 659 W/m² | - |
| 1778009370 | 26.67° C | 35% | 1239.7 hPa | 0 mm | 1.79 m/s, 205° | 677 W/m² | - |
| 1778009068 | 26.11° C | 38% | 1239.7 hPa | 0 mm | 0.89 m/s, 141° | 688 W/m² | - |
| 1778008765 | 26.11° C | 35% | 1239.7 hPa | 0 mm | 1.34 m/s, 215° | 697 W/m² | - |
| 1778008464 | 26.11° C | 35% | 1239.7 hPa | 0 mm | 1.79 m/s, 240° | 701 W/m² | - |
| 1778008160 | 26.67° C | 35% | 1239.7 hPa | 0 mm | 0 m/s | 712 W/m² | - |
| 1778007856 | 26.11° C | 38% | 1239.7 hPa | 0 mm | 0.45 m/s, 152° | 714 W/m² | - |
| 1778007551 | 26.11° C | 37% | 1239.7 hPa | 0 mm | 0 m/s | 729 W/m² | - |
| 1778007249 | 26.11° C | 37% | 1239.7 hPa | 0 mm | 0.45 m/s, 220° | 122 W/m² | - |
| 1778006945 | 25.56° C | 40% | 1239.7 hPa | 0 mm | 0.45 m/s, 150° | 202 W/m² | - |
| 1778006642 | 26.11° C | 37% | 1239.7 hPa | 0 mm | 0 m/s | 529 W/m² | - |
* Rain latest hour (hover to see other rain measurements)
** Current wind speed in m/s (hover to see current wind gust speed)